Terminal Aerodrome Forecast
Issued by NWS Shreveport, LA

Home | Current Version | Previous Version | Text Only | Print | Product List | Glossary On
Versions: 1 2 3 4 5 6 7 8 9 10 11 12
000
FTUS44 KSHV 010049 RRA
TAFTYR
TAF
KTYR 010049Z 0101/0124 VRB03KT P6SM FEW250
     FM010900 VRB03KT P6SM FEW090 BKN150
     FM011300 VRB03KT P6SM BKN050 BKN130
     FM011800 26003KT P6SM BKN050 OVC120=

USA.gov is the U.S. government's official web portal to all federal, state and local government web resources and services.